sensor_id;sensor_type;location;lat;lon;timestamp;P1;durP1;ratioP1;P2;durP2;ratioP2
28627;SDS011;15815;46.760;19.604;2024-03-29T00:02:05;0.28;;;0.28;;
28627;SDS011;15815;46.760;19.604;2024-03-29T00:04:31;0.20;;;0.20;;
28627;SDS011;15815;46.760;19.604;2024-03-29T00:06:57;0.30;;;0.30;;
28627;SDS011;15815;46.760;19.604;2024-03-29T00:09:22;0.22;;;0.22;;
28627;SDS011;15815;46.760;19.604;2024-03-29T00:11:48;0.20;;;0.20;;
28627;SDS011;15815;46.760;19.604;2024-03-29T00:14:13;0.60;;;0.40;;
28627;SDS011;15815;46.760;19.604;2024-03-29T00:16:39;0.73;;;0.35;;
28627;SDS011;15815;46.760;19.604;2024-03-29T00:19:04;0.20;;;0.20;;
28627;SDS011;15815;46.760;19.604;2024-03-29T00:21:30;0.30;;;0.30;;
28627;SDS011;15815;46.760;19.604;2024-03-29T00:23:55;0.65;;;0.40;;
28627;SDS011;15815;46.760;19.604;2024-03-29T00:26:21;0.68;;;0.50;;
28627;SDS011;15815;46.760;19.604;2024-03-29T00:28:46;1.15;;;0.38;;
28627;SDS011;15815;46.760;19.604;2024-03-29T00:31:12;0.50;;;0.40;;
28627;SDS011;15815;46.760;19.604;2024-03-29T00:33:37;0.55;;;0.55;;
28627;SDS011;15815;46.760;19.604;2024-03-29T00:36:03;1.05;;;0.40;;
28627;SDS011;15815;46.760;19.604;2024-03-29T00:38:29;0.43;;;0.40;;
28627;SDS011;15815;46.760;19.604;2024-03-29T00:40:55;2.45;;;0.40;;
28627;SDS011;15815;46.760;19.604;2024-03-29T00:43:21;0.55;;;0.30;;
28627;SDS011;15815;46.760;19.604;2024-03-29T00:45:46;0.60;;;0.50;;
28627;SDS011;15815;46.760;19.604;2024-03-29T00:48:17;0.40;;;0.30;;
28627;SDS011;15815;46.760;19.604;2024-03-29T00:50:43;0.40;;;0.40;;
28627;SDS011;15815;46.760;19.604;2024-03-29T00:53:08;2.15;;;0.40;;
28627;SDS011;15815;46.760;19.604;2024-03-29T00:55:34;0.75;;;0.45;;
28627;SDS011;15815;46.760;19.604;2024-03-29T00:57:59;0.30;;;0.30;;
28627;SDS011;15815;46.760;19.604;2024-03-29T01:00:25;0.32;;;0.30;;
28627;SDS011;15815;46.760;19.604;2024-03-29T01:02:50;0.20;;;0.20;;
28627;SDS011;15815;46.760;19.604;2024-03-29T01:05:19;1.50;;;0.38;;
28627;SDS011;15815;46.760;19.604;2024-03-29T01:07:44;0.43;;;0.30;;
28627;SDS011;15815;46.760;19.604;2024-03-29T01:10:10;0.30;;;0.20;;
28627;SDS011;15815;46.760;19.604;2024-03-29T01:12:36;0.30;;;0.30;;
28627;SDS011;15815;46.760;19.604;2024-03-29T01:15:02;0.47;;;0.47;;
28627;SDS011;15815;46.760;19.604;2024-03-29T01:17:28;1.30;;;0.50;;
28627;SDS011;15815;46.760;19.604;2024-03-29T01:19:54;0.30;;;0.30;;
28627;SDS011;15815;46.760;19.604;2024-03-29T01:22:19;2.28;;;0.50;;
28627;SDS011;15815;46.760;19.604;2024-03-29T01:24:45;0.30;;;0.30;;
28627;SDS011;15815;46.760;19.604;2024-03-29T01:27:11;0.40;;;0.40;;
28627;SDS011;15815;46.760;19.604;2024-03-29T01:29:37;0.57;;;0.38;;
28627;SDS011;15815;46.760;19.604;2024-03-29T01:32:02;0.45;;;0.45;;
28627;SDS011;15815;46.760;19.604;2024-03-29T01:34:28;0.30;;;0.30;;
28627;SDS011;15815;46.760;19.604;2024-03-29T01:36:53;0.47;;;0.32;;
28627;SDS011;15815;46.760;19.604;2024-03-29T01:39:31;0.40;;;0.40;;
28627;SDS011;15815;46.760;19.604;2024-03-29T01:41:57;0.38;;;0.38;;
28627;SDS011;15815;46.760;19.604;2024-03-29T01:44:22;0.35;;;0.35;;
28627;SDS011;15815;46.760;19.604;2024-03-29T01:46:48;0.30;;;0.30;;
28627;SDS011;15815;46.760;19.604;2024-03-29T01:49:14;0.50;;;0.30;;
28627;SDS011;15815;46.760;19.604;2024-03-29T01:51:40;0.30;;;0.30;;
28627;SDS011;15815;46.760;19.604;2024-03-29T01:54:06;1.65;;;0.50;;
28627;SDS011;15815;46.760;19.604;2024-03-29T01:56:34;0.28;;;0.28;;
28627;SDS011;15815;46.760;19.604;2024-03-29T01:59:12;0.60;;;0.30;;
28627;SDS011;15815;46.760;19.604;2024-03-29T02:01:39;0.30;;;0.30;;
28627;SDS011;15815;46.760;19.604;2024-03-29T02:04:06;0.30;;;0.30;;
28627;SDS011;15815;46.760;19.604;2024-03-29T02:06:32;0.20;;;0.20;;
28627;SDS011;15815;46.760;19.604;2024-03-29T02:08:58;0.55;;;0.30;;
28627;SDS011;15815;46.760;19.604;2024-03-29T02:11:24;1.13;;;0.40;;
28627;SDS011;15815;46.760;19.604;2024-03-29T02:13:50;0.40;;;0.30;;
28627;SDS011;15815;46.760;19.604;2024-03-29T02:16:16;0.30;;;0.30;;
28627;SDS011;15815;46.760;19.604;2024-03-29T02:18:47;1.00;;;0.20;;
28627;SDS011;15815;46.760;19.604;2024-03-29T02:23:40;0.38;;;0.38;;
28627;SDS011;15815;46.760;19.604;2024-03-29T02:26:25;0.82;;;0.38;;
28627;SDS011;15815;46.760;19.604;2024-03-29T02:28:51;0.32;;;0.30;;
28627;SDS011;15815;46.760;19.604;2024-03-29T02:31:16;1.35;;;0.40;;
28627;SDS011;15815;46.760;19.604;2024-03-29T02:33:42;0.30;;;0.30;;
28627;SDS011;15815;46.760;19.604;2024-03-29T02:36:13;0.73;;;0.40;;
28627;SDS011;15815;46.760;19.604;2024-03-29T02:38:39;1.00;;;0.40;;
28627;SDS011;15815;46.760;19.604;2024-03-29T02:41:05;0.95;;;0.60;;
28627;SDS011;15815;46.760;19.604;2024-03-29T02:43:31;0.57;;;0.50;;
28627;SDS011;15815;46.760;19.604;2024-03-29T02:45:57;1.75;;;0.70;;
28627;SDS011;15815;46.760;19.604;2024-03-29T02:48:22;0.82;;;0.50;;
28627;SDS011;15815;46.760;19.604;2024-03-29T02:50:48;0.45;;;0.40;;
28627;SDS011;15815;46.760;19.604;2024-03-29T02:53:13;1.55;;;0.57;;
28627;SDS011;15815;46.760;19.604;2024-03-29T02:55:45;0.77;;;0.68;;
28627;SDS011;15815;46.760;19.604;2024-03-29T02:58:10;0.93;;;0.50;;
28627;SDS011;15815;46.760;19.604;2024-03-29T03:00:36;0.40;;;0.40;;
28627;SDS011;15815;46.760;19.604;2024-03-29T03:03:01;0.88;;;0.50;;
28627;SDS011;15815;46.760;19.604;2024-03-29T03:05:29;0.65;;;0.60;;
28627;SDS011;15815;46.760;19.604;2024-03-29T03:07:54;2.10;;;0.60;;
28627;SDS011;15815;46.760;19.604;2024-03-29T03:10:20;0.85;;;0.57;;
28627;SDS011;15815;46.760;19.604;2024-03-29T03:12:45;0.55;;;0.50;;
28627;SDS011;15815;46.760;19.604;2024-03-29T03:15:14;0.95;;;0.65;;
28627;SDS011;15815;46.760;19.604;2024-03-29T03:17:39;0.60;;;0.60;;
28627;SDS011;15815;46.760;19.604;2024-03-29T03:20:05;0.43;;;0.43;;
28627;SDS011;15815;46.760;19.604;2024-03-29T03:22:31;0.55;;;0.43;;
28627;SDS011;15815;46.760;19.604;2024-03-29T03:24:57;0.50;;;0.50;;
28627;SDS011;15815;46.760;19.604;2024-03-29T03:27:22;0.57;;;0.47;;
28627;SDS011;15815;46.760;19.604;2024-03-29T03:29:47;2.00;;;0.40;;
28627;SDS011;15815;46.760;19.604;2024-03-29T03:32:13;0.30;;;0.30;;
28627;SDS011;15815;46.760;19.604;2024-03-29T03:34:53;0.43;;;0.43;;
28627;SDS011;15815;46.760;19.604;2024-03-29T03:37:19;0.77;;;0.43;;
28627;SDS011;15815;46.760;19.604;2024-03-29T03:39:44;0.45;;;0.45;;
28627;SDS011;15815;46.760;19.604;2024-03-29T03:42:10;0.60;;;0.60;;
28627;SDS011;15815;46.760;19.604;2024-03-29T03:44:35;0.73;;;0.60;;
28627;SDS011;15815;46.760;19.604;2024-03-29T03:47:03;0.38;;;0.38;;
28627;SDS011;15815;46.760;19.604;2024-03-29T03:49:28;2.50;;;0.50;;
28627;SDS011;15815;46.760;19.604;2024-03-29T03:51:57;0.80;;;0.80;;
28627;SDS011;15815;46.760;19.604;2024-03-29T03:54:23;0.57;;;0.57;;
28627;SDS011;15815;46.760;19.604;2024-03-29T03:56:49;0.47;;;0.47;;
28627;SDS011;15815;46.760;19.604;2024-03-29T03:59:14;0.77;;;0.52;;
28627;SDS011;15815;46.760;19.604;2024-03-29T04:01:40;0.63;;;0.55;;
28627;SDS011;15815;46.760;19.604;2024-03-29T04:04:05;0.60;;;0.60;;
28627;SDS011;15815;46.760;19.604;2024-03-29T04:06:31;0.77;;;0.63;;
28627;SDS011;15815;46.760;19.604;2024-03-29T04:08:56;0.52;;;0.52;;
28627;SDS011;15815;46.760;19.604;2024-03-29T04:11:22;2.10;;;1.60;;
28627;SDS011;15815;46.760;19.604;2024-03-29T04:13:48;1.73;;;1.15;;
28627;SDS011;15815;46.760;19.604;2024-03-29T04:16:13;2.35;;;1.38;;
28627;SDS011;15815;46.760;19.604;2024-03-29T04:18:38;2.13;;;1.30;;
28627;SDS011;15815;46.760;19.604;2024-03-29T04:21:04;1.98;;;1.13;;
28627;SDS011;15815;46.760;19.604;2024-03-29T04:23:31;1.27;;;1.05;;
28627;SDS011;15815;46.760;19.604;2024-03-29T04:25:57;1.27;;;0.80;;
28627;SDS011;15815;46.760;19.604;2024-03-29T04:28:24;2.88;;;1.05;;
28627;SDS011;15815;46.760;19.604;2024-03-29T04:33:19;2.97;;;0.85;;
28627;SDS011;15815;46.760;19.604;2024-03-29T04:35:54;1.00;;;0.77;;
28627;SDS011;15815;46.760;19.604;2024-03-29T04:38:29;0.70;;;0.70;;
28627;SDS011;15815;46.760;19.604;2024-03-29T04:40:55;1.20;;;1.02;;
28627;SDS011;15815;46.760;19.604;2024-03-29T04:43:22;1.42;;;0.85;;
28627;SDS011;15815;46.760;19.604;2024-03-29T04:48:42;1.85;;;0.80;;
28627;SDS011;15815;46.760;19.604;2024-03-29T04:51:08;0.82;;;0.70;;
28627;SDS011;15815;46.760;19.604;2024-03-29T04:56:05;0.70;;;0.68;;
28627;SDS011;15815;46.760;19.604;2024-03-29T04:58:31;0.85;;;0.73;;
28627;SDS011;15815;46.760;19.604;2024-03-29T05:00:57;0.70;;;0.70;;
28627;SDS011;15815;46.760;19.604;2024-03-29T05:03:23;3.13;;;0.70;;
28627;SDS011;15815;46.760;19.604;2024-03-29T05:05:49;2.78;;;1.13;;
28627;SDS011;15815;46.760;19.604;2024-03-29T05:08:16;2.45;;;0.95;;
28627;SDS011;15815;46.760;19.604;2024-03-29T05:10:41;0.88;;;0.75;;
28627;SDS011;15815;46.760;19.604;2024-03-29T05:15:38;2.05;;;1.00;;
28627;SDS011;15815;46.760;19.604;2024-03-29T05:18:03;1.33;;;1.00;;
28627;SDS011;15815;46.760;19.604;2024-03-29T05:20:35;2.00;;;0.80;;
28627;SDS011;15815;46.760;19.604;2024-03-29T05:23:01;1.20;;;1.10;;
28627;SDS011;15815;46.760;19.604;2024-03-29T05:25:27;3.15;;;2.42;;
28627;SDS011;15815;46.760;19.604;2024-03-29T05:27:59;1.23;;;0.98;;
28627;SDS011;15815;46.760;19.604;2024-03-29T05:30:24;1.27;;;0.90;;
28627;SDS011;15815;46.760;19.604;2024-03-29T05:32:50;1.55;;;1.02;;
28627;SDS011;15815;46.760;19.604;2024-03-29T05:35:28;1.38;;;0.88;;
28627;SDS011;15815;46.760;19.604;2024-03-29T05:37:53;0.60;;;0.52;;
28627;SDS011;15815;46.760;19.604;2024-03-29T05:40:19;0.82;;;0.70;;
28627;SDS011;15815;46.760;19.604;2024-03-29T05:42:44;2.17;;;0.63;;
28627;SDS011;15815;46.760;19.604;2024-03-29T05:45:22;1.10;;;0.50;;
28627;SDS011;15815;46.760;19.604;2024-03-29T05:47:49;6.22;;;0.80;;
28627;SDS011;15815;46.760;19.604;2024-03-29T05:50:16;1.45;;;0.70;;
28627;SDS011;15815;46.760;19.604;2024-03-29T05:52:42;0.90;;;0.57;;
28627;SDS011;15815;46.760;19.604;2024-03-29T05:58:24;1.65;;;0.50;;
28627;SDS011;15815;46.760;19.604;2024-03-29T06:00:49;0.60;;;0.40;;
28627;SDS011;15815;46.760;19.604;2024-03-29T06:03:15;0.50;;;0.45;;
28627;SDS011;15815;46.760;19.604;2024-03-29T06:08:41;2.97;;;0.68;;
28627;SDS011;15815;46.760;19.604;2024-03-29T06:11:06;1.35;;;0.50;;
28627;SDS011;15815;46.760;19.604;2024-03-29T06:13:47;0.80;;;0.68;;
28627;SDS011;15815;46.760;19.604;2024-03-29T06:16:13;1.87;;;0.60;;
28627;SDS011;15815;46.760;19.604;2024-03-29T06:18:38;0.25;;;0.22;;
28627;SDS011;15815;46.760;19.604;2024-03-29T06:21:14;0.93;;;0.45;;
28627;SDS011;15815;46.760;19.604;2024-03-29T06:23:39;0.50;;;0.50;;
28627;SDS011;15815;46.760;19.604;2024-03-29T06:26:05;0.93;;;0.30;;
28627;SDS011;15815;46.760;19.604;2024-03-29T06:31:46;0.80;;;0.30;;
28627;SDS011;15815;46.760;19.604;2024-03-29T06:37:10;0.73;;;0.35;;
28627;SDS011;15815;46.760;19.604;2024-03-29T06:42:24;0.25;;;0.25;;
28627;SDS011;15815;46.760;19.604;2024-03-29T06:44:50;0.68;;;0.40;;
28627;SDS011;15815;46.760;19.604;2024-03-29T06:47:16;0.68;;;0.38;;
28627;SDS011;15815;46.760;19.604;2024-03-29T06:49:41;0.38;;;0.20;;
28627;SDS011;15815;46.760;19.604;2024-03-29T06:52:07;0.10;;;0.10;;
28627;SDS011;15815;46.760;19.604;2024-03-29T06:57:23;0.77;;;0.40;;
28627;SDS011;15815;46.760;19.604;2024-03-29T07:00:07;0.80;;;0.20;;
28627;SDS011;15815;46.760;19.604;2024-03-29T07:02:33;0.45;;;0.20;;
28627;SDS011;15815;46.760;19.604;2024-03-29T07:04:58;3.25;;;0.30;;
28627;SDS011;15815;46.760;19.604;2024-03-29T07:07:24;0.52;;;0.30;;
28627;SDS011;15815;46.760;19.604;2024-03-29T07:09:49;1.42;;;0.55;;
28627;SDS011;15815;46.760;19.604;2024-03-29T07:12:15;1.05;;;0.50;;
28627;SDS011;15815;46.760;19.604;2024-03-29T07:14:41;0.75;;;0.20;;
28627;SDS011;15815;46.760;19.604;2024-03-29T07:17:06;0.30;;;0.20;;
28627;SDS011;15815;46.760;19.604;2024-03-29T07:22:18;0.45;;;0.35;;
28627;SDS011;15815;46.760;19.604;2024-03-29T07:24:44;0.20;;;0.20;;
28627;SDS011;15815;46.760;19.604;2024-03-29T07:27:16;0.30;;;0.20;;
28627;SDS011;15815;46.760;19.604;2024-03-29T07:29:42;0.52;;;0.32;;
28627;SDS011;15815;46.760;19.604;2024-03-29T07:32:09;0.10;;;0.10;;
28627;SDS011;15815;46.760;19.604;2024-03-29T07:34:35;1.70;;;0.28;;
28627;SDS011;15815;46.760;19.604;2024-03-29T07:37:01;0.82;;;0.30;;
28627;SDS011;15815;46.760;19.604;2024-03-29T07:39:26;0.88;;;0.50;;
28627;SDS011;15815;46.760;19.604;2024-03-29T07:41:52;0.55;;;0.20;;
28627;SDS011;15815;46.760;19.604;2024-03-29T07:44:18;0.17;;;0.15;;
28627;SDS011;15815;46.760;19.604;2024-03-29T07:46:43;0.15;;;0.15;;
28627;SDS011;15815;46.760;19.604;2024-03-29T07:49:09;0.22;;;0.22;;
28627;SDS011;15815;46.760;19.604;2024-03-29T07:51:34;1.00;;;0.17;;
28627;SDS011;15815;46.760;19.604;2024-03-29T07:54:00;0.82;;;0.30;;
28627;SDS011;15815;46.760;19.604;2024-03-29T07:56:25;0.10;;;0.10;;
28627;SDS011;15815;46.760;19.604;2024-03-29T07:58:54;0.20;;;0.20;;
28627;SDS011;15815;46.760;19.604;2024-03-29T08:01:37;1.17;;;0.10;;
28627;SDS011;15815;46.760;19.604;2024-03-29T08:04:03;0.50;;;0.30;;
28627;SDS011;15815;46.760;19.604;2024-03-29T08:06:28;0.55;;;0.30;;
28627;SDS011;15815;46.760;19.604;2024-03-29T08:08:55;0.10;;;0.10;;
28627;SDS011;15815;46.760;19.604;2024-03-29T08:11:20;0.70;;;0.32;;
28627;SDS011;15815;46.760;19.604;2024-03-29T08:13:46;0.40;;;0.30;;
28627;SDS011;15815;46.760;19.604;2024-03-29T08:16:11;0.82;;;0.10;;
28627;SDS011;15815;46.760;19.604;2024-03-29T08:18:37;0.30;;;0.22;;
28627;SDS011;15815;46.760;19.604;2024-03-29T08:21:02;0.85;;;0.52;;
28627;SDS011;15815;46.760;19.604;2024-03-29T08:23:28;0.22;;;0.22;;
28627;SDS011;15815;46.760;19.604;2024-03-29T08:25:54;0.55;;;0.15;;
28627;SDS011;15815;46.760;19.604;2024-03-29T08:28:19;0.10;;;0.10;;
28627;SDS011;15815;46.760;19.604;2024-03-29T08:30:45;0.15;;;0.10;;
28627;SDS011;15815;46.760;19.604;2024-03-29T08:35:54;1.75;;;0.20;;
28627;SDS011;15815;46.760;19.604;2024-03-29T08:38:29;0.10;;;0.10;;
28627;SDS011;15815;46.760;19.604;2024-03-29T08:40:55;0.30;;;0.30;;
28627;SDS011;15815;46.760;19.604;2024-03-29T08:43:22;0.30;;;0.15;;
28627;SDS011;15815;46.760;19.604;2024-03-29T08:45:48;0.80;;;0.15;;
28627;SDS011;15815;46.760;19.604;2024-03-29T08:48:13;0.10;;;0.10;;
28627;SDS011;15815;46.760;19.604;2024-03-29T08:50:39;0.05;;;0.05;;
28627;SDS011;15815;46.760;19.604;2024-03-29T08:53:05;0.63;;;0.30;;
28627;SDS011;15815;46.760;19.604;2024-03-29T08:55:31;0.20;;;0.10;;
28627;SDS011;15815;46.760;19.604;2024-03-29T08:57:59;0.80;;;0.15;;
28627;SDS011;15815;46.760;19.604;2024-03-29T09:00:26;0.60;;;0.15;;
28627;SDS011;15815;46.760;19.604;2024-03-29T09:02:52;0.80;;;0.10;;
28627;SDS011;15815;46.760;19.604;2024-03-29T09:05:19;0.03;;;0.03;;
28627;SDS011;15815;46.760;19.604;2024-03-29T09:07:45;0.08;;;0.08;;
28627;SDS011;15815;46.760;19.604;2024-03-29T09:10:13;1.65;;;0.20;;
28627;SDS011;15815;46.760;19.604;2024-03-29T09:12:39;0.00;;;0.00;;
28627;SDS011;15815;46.760;19.604;2024-03-29T09:15:06;0.20;;;0.10;;
28627;SDS011;15815;46.760;19.604;2024-03-29T09:17:35;0.50;;;0.30;;
28627;SDS011;15815;46.760;19.604;2024-03-29T09:20:00;0.35;;;0.10;;
28627;SDS011;15815;46.760;19.604;2024-03-29T09:22:26;0.20;;;0.20;;
28627;SDS011;15815;46.760;19.604;2024-03-29T09:24:58;0.65;;;0.10;;
28627;SDS011;15815;46.760;19.604;2024-03-29T09:27:27;0.35;;;0.10;;
28627;SDS011;15815;46.760;19.604;2024-03-29T09:29:54;0.30;;;0.10;;
28627;SDS011;15815;46.760;19.604;2024-03-29T09:32:20;0.22;;;0.20;;
28627;SDS011;15815;46.760;19.604;2024-03-29T09:34:45;0.17;;;0.13;;
28627;SDS011;15815;46.760;19.604;2024-03-29T09:37:11;0.60;;;0.22;;
28627;SDS011;15815;46.760;19.604;2024-03-29T09:39:36;0.40;;;0.20;;
28627;SDS011;15815;46.760;19.604;2024-03-29T09:42:02;2.47;;;0.40;;
28627;SDS011;15815;46.760;19.604;2024-03-29T09:44:31;0.22;;;0.17;;
28627;SDS011;15815;46.760;19.604;2024-03-29T09:47:05;3.85;;;0.30;;
28627;SDS011;15815;46.760;19.604;2024-03-29T09:49:31;0.30;;;0.28;;
28627;SDS011;15815;46.760;19.604;2024-03-29T09:52:00;0.10;;;0.10;;
28627;SDS011;15815;46.760;19.604;2024-03-29T09:54:27;0.15;;;0.10;;
28627;SDS011;15815;46.760;19.604;2024-03-29T09:56:55;0.80;;;0.30;;
28627;SDS011;15815;46.760;19.604;2024-03-29T09:59:21;1.60;;;0.40;;
28627;SDS011;15815;46.760;19.604;2024-03-29T10:01:48;0.30;;;0.20;;
28627;SDS011;15815;46.760;19.604;2024-03-29T10:04:15;0.70;;;0.30;;
28627;SDS011;15815;46.760;19.604;2024-03-29T10:06:45;2.70;;;0.13;;
28627;SDS011;15815;46.760;19.604;2024-03-29T10:09:12;0.22;;;0.20;;
28627;SDS011;15815;46.760;19.604;2024-03-29T10:11:37;0.13;;;0.13;;
28627;SDS011;15815;46.760;19.604;2024-03-29T10:14:03;2.80;;;0.45;;
28627;SDS011;15815;46.760;19.604;2024-03-29T10:16:31;0.63;;;0.30;;
28627;SDS011;15815;46.760;19.604;2024-03-29T10:19:00;1.38;;;0.40;;
28627;SDS011;15815;46.760;19.604;2024-03-29T10:21:26;1.33;;;0.28;;
28627;SDS011;15815;46.760;19.604;2024-03-29T10:23:51;1.02;;;0.30;;
28627;SDS011;15815;46.760;19.604;2024-03-29T10:26:17;2.15;;;0.40;;
28627;SDS011;15815;46.760;19.604;2024-03-29T10:28:43;0.82;;;0.28;;
28627;SDS011;15815;46.760;19.604;2024-03-29T10:31:08;0.57;;;0.32;;
28627;SDS011;15815;46.760;19.604;2024-03-29T10:33:37;2.38;;;0.50;;
28627;SDS011;15815;46.760;19.604;2024-03-29T10:36:03;2.65;;;0.80;;
28627;SDS011;15815;46.760;19.604;2024-03-29T10:38:29;2.15;;;0.68;;
28627;SDS011;15815;46.760;19.604;2024-03-29T10:40:55;1.08;;;0.50;;
28627;SDS011;15815;46.760;19.604;2024-03-29T10:43:21;4.43;;;0.50;;
28627;SDS011;15815;46.760;19.604;2024-03-29T10:45:49;2.17;;;0.68;;
28627;SDS011;15815;46.760;19.604;2024-03-29T10:48:15;1.98;;;0.50;;
28627;SDS011;15815;46.760;19.604;2024-03-29T10:50:42;1.40;;;0.55;;
28627;SDS011;15815;46.760;19.604;2024-03-29T10:53:09;2.25;;;0.50;;
28627;SDS011;15815;46.760;19.604;2024-03-29T10:58:05;1.92;;;0.70;;
28627;SDS011;15815;46.760;19.604;2024-03-29T11:00:38;1.65;;;0.57;;
28627;SDS011;15815;46.760;19.604;2024-03-29T11:05:39;0.80;;;0.50;;
28627;SDS011;15815;46.760;19.604;2024-03-29T11:08:10;4.50;;;0.73;;
28627;SDS011;15815;46.760;19.604;2024-03-29T11:10:41;3.22;;;0.75;;
28627;SDS011;15815;46.760;19.604;2024-03-29T11:13:12;6.35;;;0.93;;
28627;SDS011;15815;46.760;19.604;2024-03-29T11:15:58;1.88;;;0.57;;
28627;SDS011;15815;46.760;19.604;2024-03-29T11:18:25;4.00;;;0.80;;
28627;SDS011;15815;46.760;19.604;2024-03-29T11:20:52;4.63;;;1.10;;
28627;SDS011;15815;46.760;19.604;2024-03-29T11:23:22;2.55;;;1.05;;
28627;SDS011;15815;46.760;19.604;2024-03-29T11:25:48;4.45;;;1.00;;
28627;SDS011;15815;46.760;19.604;2024-03-29T11:28:16;2.97;;;1.08;;
28627;SDS011;15815;46.760;19.604;2024-03-29T11:30:51;2.55;;;0.70;;
28627;SDS011;15815;46.760;19.604;2024-03-29T11:33:33;3.60;;;0.85;;
28627;SDS011;15815;46.760;19.604;2024-03-29T11:36:24;2.22;;;0.57;;
28627;SDS011;15815;46.760;19.604;2024-03-29T11:38:54;5.07;;;0.82;;
28627;SDS011;15815;46.760;19.604;2024-03-29T11:41:22;1.98;;;0.70;;
28627;SDS011;15815;46.760;19.604;2024-03-29T11:43:55;1.23;;;0.70;;
28627;SDS011;15815;46.760;19.604;2024-03-29T11:46:22;2.15;;;0.70;;
28627;SDS011;15815;46.760;19.604;2024-03-29T11:48:49;2.90;;;0.90;;
28627;SDS011;15815;46.760;19.604;2024-03-29T11:51:15;1.70;;;0.60;;
28627;SDS011;15815;46.760;19.604;2024-03-29T11:53:43;3.65;;;0.60;;
28627;SDS011;15815;46.760;19.604;2024-03-29T11:56:09;2.15;;;0.90;;
28627;SDS011;15815;46.760;19.604;2024-03-29T11:58:35;3.70;;;0.98;;
28627;SDS011;15815;46.760;19.604;2024-03-29T12:01:02;3.38;;;0.73;;
28627;SDS011;15815;46.760;19.604;2024-03-29T12:03:31;4.60;;;0.68;;
28627;SDS011;15815;46.760;19.604;2024-03-29T12:05:58;2.67;;;1.00;;
28627;SDS011;15815;46.760;19.604;2024-03-29T12:08:40;3.72;;;1.13;;
28627;SDS011;15815;46.760;19.604;2024-03-29T12:11:06;3.63;;;0.88;;
28627;SDS011;15815;46.760;19.604;2024-03-29T12:13:35;4.90;;;0.80;;
28627;SDS011;15815;46.760;19.604;2024-03-29T12:16:00;7.22;;;1.35;;
28627;SDS011;15815;46.760;19.604;2024-03-29T12:18:27;6.63;;;1.30;;
28627;SDS011;15815;46.760;19.604;2024-03-29T12:20:52;4.68;;;0.80;;
28627;SDS011;15815;46.760;19.604;2024-03-29T12:23:19;4.57;;;1.08;;
28627;SDS011;15815;46.760;19.604;2024-03-29T12:25:53;2.67;;;0.68;;
28627;SDS011;15815;46.760;19.604;2024-03-29T12:28:20;2.55;;;0.70;;
28627;SDS011;15815;46.760;19.604;2024-03-29T12:30:47;5.45;;;0.77;;
28627;SDS011;15815;46.760;19.604;2024-03-29T12:33:14;4.20;;;0.82;;
28627;SDS011;15815;46.760;19.604;2024-03-29T12:35:44;3.22;;;1.00;;
28627;SDS011;15815;46.760;19.604;2024-03-29T12:38:16;4.80;;;1.02;;
28627;SDS011;15815;46.760;19.604;2024-03-29T12:40:44;4.43;;;0.70;;
28627;SDS011;15815;46.760;19.604;2024-03-29T12:43:11;2.47;;;0.85;;
28627;SDS011;15815;46.760;19.604;2024-03-29T12:45:37;4.15;;;0.65;;
28627;SDS011;15815;46.760;19.604;2024-03-29T12:48:11;2.15;;;0.65;;
28627;SDS011;15815;46.760;19.604;2024-03-29T12:50:42;3.85;;;0.65;;
28627;SDS011;15815;46.760;19.604;2024-03-29T12:53:10;8.98;;;1.42;;
28627;SDS011;15815;46.760;19.604;2024-03-29T12:55:36;7.18;;;1.00;;
28627;SDS011;15815;46.760;19.604;2024-03-29T12:58:03;4.25;;;0.68;;
28627;SDS011;15815;46.760;19.604;2024-03-29T13:00:30;3.95;;;0.52;;
28627;SDS011;15815;46.760;19.604;2024-03-29T13:02:56;2.90;;;1.13;;
28627;SDS011;15815;46.760;19.604;2024-03-29T13:05:22;2.30;;;0.65;;
28627;SDS011;15815;46.760;19.604;2024-03-29T13:07:49;4.20;;;0.70;;
28627;SDS011;15815;46.760;19.604;2024-03-29T13:10:15;3.60;;;1.33;;
28627;SDS011;15815;46.760;19.604;2024-03-29T13:12:41;4.55;;;1.05;;
28627;SDS011;15815;46.760;19.604;2024-03-29T13:15:14;3.88;;;0.82;;
28627;SDS011;15815;46.760;19.604;2024-03-29T13:17:44;5.68;;;0.98;;
28627;SDS011;15815;46.760;19.604;2024-03-29T13:20:11;4.30;;;0.63;;
28627;SDS011;15815;46.760;19.604;2024-03-29T13:22:37;4.05;;;1.23;;
28627;SDS011;15815;46.760;19.604;2024-03-29T13:25:03;5.63;;;2.50;;
28627;SDS011;15815;46.760;19.604;2024-03-29T13:27:29;8.18;;;1.13;;
28627;SDS011;15815;46.760;19.604;2024-03-29T13:29:58;5.22;;;1.10;;
28627;SDS011;15815;46.760;19.604;2024-03-29T13:32:23;4.47;;;1.10;;
28627;SDS011;15815;46.760;19.604;2024-03-29T13:34:54;3.70;;;0.60;;
28627;SDS011;15815;46.760;19.604;2024-03-29T13:37:19;3.07;;;0.90;;
28627;SDS011;15815;46.760;19.604;2024-03-29T13:39:45;2.05;;;0.63;;
28627;SDS011;15815;46.760;19.604;2024-03-29T13:42:12;1.83;;;0.70;;
28627;SDS011;15815;46.760;19.604;2024-03-29T13:44:38;3.05;;;0.88;;
28627;SDS011;15815;46.760;19.604;2024-03-29T13:47:03;4.32;;;1.05;;
28627;SDS011;15815;46.760;19.604;2024-03-29T13:49:32;3.70;;;0.80;;
28627;SDS011;15815;46.760;19.604;2024-03-29T13:51:58;2.25;;;0.60;;
28627;SDS011;15815;46.760;19.604;2024-03-29T13:54:23;6.80;;;0.90;;
28627;SDS011;15815;46.760;19.604;2024-03-29T13:56:49;3.55;;;0.85;;
28627;SDS011;15815;46.760;19.604;2024-03-29T13:59:15;2.85;;;0.60;;
28627;SDS011;15815;46.760;19.604;2024-03-29T14:01:41;6.93;;;0.75;;
28627;SDS011;15815;46.760;19.604;2024-03-29T14:04:07;3.25;;;0.70;;
28627;SDS011;15815;46.760;19.604;2024-03-29T14:06:32;6.45;;;0.75;;
28627;SDS011;15815;46.760;19.604;2024-03-29T14:08:58;5.68;;;0.80;;
28627;SDS011;15815;46.760;19.604;2024-03-29T14:11:23;2.65;;;0.75;;
28627;SDS011;15815;46.760;19.604;2024-03-29T14:13:49;3.95;;;0.63;;
28627;SDS011;15815;46.760;19.604;2024-03-29T14:16:18;1.75;;;0.68;;
28627;SDS011;15815;46.760;19.604;2024-03-29T14:18:43;5.82;;;1.05;;
28627;SDS011;15815;46.760;19.604;2024-03-29T14:21:09;4.35;;;0.57;;
28627;SDS011;15815;46.760;19.604;2024-03-29T14:23:35;3.53;;;0.75;;
28627;SDS011;15815;46.760;19.604;2024-03-29T14:26:00;6.13;;;1.00;;
28627;SDS011;15815;46.760;19.604;2024-03-29T14:28:26;8.75;;;1.02;;
28627;SDS011;15815;46.760;19.604;2024-03-29T14:30:53;4.35;;;0.75;;
28627;SDS011;15815;46.760;19.604;2024-03-29T14:33:18;5.45;;;0.90;;
28627;SDS011;15815;46.760;19.604;2024-03-29T14:35:44;3.85;;;0.68;;
28627;SDS011;15815;46.760;19.604;2024-03-29T14:38:10;4.18;;;0.73;;
28627;SDS011;15815;46.760;19.604;2024-03-29T14:40:41;6.78;;;0.70;;
28627;SDS011;15815;46.760;19.604;2024-03-29T14:43:07;1.20;;;0.50;;
28627;SDS011;15815;46.760;19.604;2024-03-29T14:45:33;3.83;;;0.90;;
28627;SDS011;15815;46.760;19.604;2024-03-29T14:47:59;7.68;;;1.40;;
28627;SDS011;15815;46.760;19.604;2024-03-29T14:50:27;5.95;;;1.83;;
28627;SDS011;15815;46.760;19.604;2024-03-29T14:52:52;4.13;;;2.03;;
28627;SDS011;15815;46.760;19.604;2024-03-29T14:55:18;3.92;;;0.82;;
28627;SDS011;15815;46.760;19.604;2024-03-29T14:57:43;2.50;;;0.80;;
28627;SDS011;15815;46.760;19.604;2024-03-29T15:00:10;6.75;;;1.48;;
28627;SDS011;15815;46.760;19.604;2024-03-29T15:02:36;3.75;;;0.75;;
28627;SDS011;15815;46.760;19.604;2024-03-29T15:05:02;2.60;;;0.80;;
28627;SDS011;15815;46.760;19.604;2024-03-29T15:07:27;4.03;;;0.85;;
28627;SDS011;15815;46.760;19.604;2024-03-29T15:09:53;3.08;;;0.82;;
28627;SDS011;15815;46.760;19.604;2024-03-29T15:12:18;3.58;;;0.98;;
28627;SDS011;15815;46.760;19.604;2024-03-29T15:14:44;5.55;;;1.23;;